Whiteside, MO

10:04 PM CDT on August 22, 2014 (GMT -0500)
Cuivre Valley | Change Station
CLOSE
Current Station
Personal Weather Station
Location: Troy, MO
Elevation: 610 ft
Nearby Weather Stations
Active Advisory: Heat Advisory

Elev 610 ft 38.99 °N, 90.90 °W | Updated 1 second ago

Clear
Clear
80.5 °F
Feels Like 87 °F
N
2.3
Wind Variable Wind from South
Gusts 2.3 mph

Today
High -- | Low -- °F
--% Chance of Precip.
Yesterday
High -- | Low -- °F
Precip. -- in
6:23 AM 7:49 PM
Waning Crescent, 5% visible
Pressure 29.97 in
Visibility 7.0 miles
Clouds Clear
Heat Index 87 °F
Dew Point 78 °F
Humidity 92%
Rainfall 0.00 in
Snow Depth Not available.
UV 0 out of 12
Pollen 9.20 out of 12
Air Quality Not available.
Flu Activity Not available.
METAR KPPQ 230255Z AUTO 05003KT 7SM CLR 27/25 A2997 RMK AO2 T02660246

More Conditions Fewer Conditions

Pressure 29.97 in
Visibility 7.0 miles
Clouds Clear
Heat Index 87 °F
Dew Point 78 °F
Humidity 92%
Rainfall 0.00 in
Snow Depth Not available.
UV 0 out of 12
Pollen 9.20 out of 12
Air Quality Not available.
Flu Activity Not available.
METAR KPPQ 230255Z AUTO 05003KT 7SM CLR 27/25 A2997 RMK AO2 T02660246

More Conditions Fewer Conditions

10-Day Weather Forecast

Almanac

Astronomy

Aug. 22, 2014 Rise Set
Actual Time 6:23 AM CDT 7:49 PM CDT
Civil Twilight 5:55 AM CDT 8:17 PM CDT
Nautical Twilight 5:21 AM CDT 8:51 PM CDT
Astronomical Twilight 4:46 AM CDT 9:26 PM CDT
Moon 3:46 AM CDT (8/22) 5:57 PM CDT (8/22)
Length of Visible Light 14h 22m
Length of Day
13h 25m
Tomorrow will be 2m 22s shorter.
Waning Crescent, 5% of the Moon is Illuminated
Today
Waning Crescent
Aug 25
New
Sep 2
First Quarter
Sep 8
Full
Sep 15
Last Quarter

Today's Extremes

State Highs State Lows

Community

WunderPhotos

Upload Photos

1,746,348 photos uploaded!

WunderBlogs® & News

Nearby

Snow Depth

Station Depth Elevation
No new snow has been reported.

Earthquake Activity

City Distance Mag. Time & Date
No recent earthquake activity has been reported nearby.
Minimum magnitude displayed is 2.5.

Coastal Water Temperatures

Place Temperature
No Stations Reporting

Nearby Weather Stations